createdAt,value
2023-05-10T00:00:18.982Z,6.60
2023-05-10T00:02:47.150Z,10.88
2023-05-10T00:05:15.099Z,5.15
2023-05-10T00:07:45.683Z,10.38
2023-05-10T00:10:14.316Z,7.20
2023-05-10T00:12:44.146Z,7.57
2023-05-10T00:15:13.196Z,13.98
2023-05-10T00:17:41.419Z,7.30
2023-05-10T00:20:10.376Z,8.57
2023-05-10T00:22:38.303Z,8.23
2023-05-10T00:25:07.454Z,11.10
2023-05-10T00:27:35.565Z,7.43
2023-05-10T00:30:05.468Z,7.72
2023-05-10T00:32:33.445Z,6.40
2023-05-10T00:35:01.443Z,7.90
2023-05-10T00:37:29.354Z,7.20
2023-05-10T00:39:57.383Z,11.43
2023-05-10T00:42:25.479Z,7.60
2023-05-10T00:44:55.716Z,8.80
2023-05-10T00:47:25.104Z,7.97
2023-05-10T00:49:53.631Z,6.35
2023-05-10T00:52:21.802Z,11.57
2023-05-10T00:54:50.173Z,8.57
2023-05-10T00:57:18.325Z,8.48
2023-05-10T00:59:46.358Z,9.23
2023-05-10T01:02:15.382Z,8.93
2023-05-10T01:04:45.297Z,7.72
2023-05-10T01:07:13.204Z,11.88
2023-05-10T01:09:41.319Z,11.48
2023-05-10T01:12:09.566Z,9.13
2023-05-10T01:14:38.306Z,8.23
2023-05-10T01:17:08.065Z,12.02
2023-05-10T01:19:43.724Z,7.57
2023-05-10T01:22:44.188Z,9.93
2023-05-10T01:25:45.815Z,11.35
2023-05-10T01:28:50.256Z,14.48
2023-05-10T01:31:32.902Z,9.40
2023-05-10T01:34:07.278Z,8.95
2023-05-10T01:36:42.360Z,8.43
2023-05-10T01:39:18.027Z,13.93
2023-05-10T01:41:53.162Z,8.85
2023-05-10T01:44:29.322Z,8.05
2023-05-10T01:47:06.561Z,9.20
2023-05-10T01:49:42.543Z,7.18
2023-05-10T01:52:12.727Z,7.05
2023-05-10T01:54:45.169Z,9.10
2023-05-10T01:57:15.876Z,10.27
2023-05-10T01:59:47.517Z,6.95
2023-05-10T02:02:17.233Z,10.70
2023-05-10T02:04:49.642Z,10.68
2023-05-10T02:07:18.632Z,6.55
2023-05-10T02:09:49.054Z,7.78
2023-05-10T02:12:18.124Z,8.63
2023-05-10T02:14:47.313Z,11.45
2023-05-10T02:17:16.450Z,7.90
2023-05-10T02:19:46.335Z,7.68
2023-05-10T02:22:17.389Z,13.15
2023-05-10T02:24:47.121Z,10.48
2023-05-10T02:27:17.798Z,10.68
2023-05-10T02:29:46.935Z,11.95
2023-05-10T02:32:16.606Z,11.43
2023-05-10T02:34:46.572Z,11.30
2023-05-10T02:37:19.353Z,8.20
2023-05-10T02:39:48.978Z,10.05
2023-05-10T02:42:19.892Z,9.75
2023-05-10T02:44:51.139Z,9.77
2023-05-10T02:47:19.929Z,7.30
2023-05-10T02:49:48.226Z,10.88
2023-05-10T02:52:24.254Z,8.10
2023-05-10T02:54:56.633Z,9.48
2023-05-10T02:57:29.408Z,6.90
2023-05-10T02:59:57.391Z,7.63
2023-05-10T03:02:25.485Z,9.05
2023-05-10T03:04:53.382Z,8.50
2023-05-10T03:07:23.300Z,8.88
2023-05-10T03:09:51.815Z,8.48
2023-05-10T03:12:29.359Z,8.50
2023-05-10T03:15:04.408Z,8.05
2023-05-10T03:17:38.442Z,6.47
2023-05-10T03:22:40.419Z,6.20
2023-05-10T03:25:12.580Z,8.85
2023-05-10T03:27:45.628Z,6.25
2023-05-10T03:30:15.182Z,7.30
2023-05-10T03:32:43.423Z,4.68
2023-05-10T03:35:12.637Z,9.93
2023-05-10T03:37:42.094Z,7.18
2023-05-10T03:40:11.934Z,6.93
2023-05-10T03:42:42.485Z,6.73
2023-05-10T03:45:11.686Z,9.43
2023-05-10T03:47:39.599Z,7.10
2023-05-10T03:50:08.800Z,8.95
2023-05-10T03:52:36.861Z,7.80
2023-05-10T03:55:07.308Z,6.20
2023-05-10T03:57:35.725Z,7.30
2023-05-10T04:00:03.785Z,8.85
2023-05-10T04:02:42.410Z,12.10
2023-05-10T04:05:15.792Z,7.32
2023-05-10T04:07:45.250Z,8.80
2023-05-10T04:10:14.963Z,7.55
2023-05-10T04:12:42.988Z,5.63
2023-05-10T04:15:11.437Z,7.82
2023-05-10T04:17:39.342Z,7.78
2023-05-10T04:20:08.659Z,9.07
2023-05-10T04:22:36.727Z,9.98
2023-05-10T04:25:05.363Z,6.25
2023-05-10T04:27:34.732Z,8.20
2023-05-10T04:30:02.935Z,9.57
2023-05-10T04:32:30.858Z,8.63
2023-05-10T04:34:58.814Z,8.50
2023-05-10T04:37:26.718Z,7.47
2023-05-10T04:39:54.549Z,8.60
2023-05-10T04:42:22.362Z,8.13
2023-05-10T04:44:52.843Z,8.90
2023-05-10T04:47:20.920Z,8.27
2023-05-10T04:49:48.843Z,12.82
2023-05-10T04:52:18.528Z,11.88
2023-05-10T04:54:46.429Z,7.38
2023-05-10T04:57:14.260Z,7.47
2023-05-10T04:59:42.127Z,11.75
2023-05-10T05:02:11.379Z,14.60
2023-05-10T05:04:39.229Z,7.65
2023-05-10T05:07:07.075Z,7.55
2023-05-10T05:09:34.950Z,5.07
2023-05-10T05:12:02.810Z,7.90
2023-05-10T05:14:30.694Z,6.85
2023-05-10T05:16:58.677Z,9.77
2023-05-10T05:19:28.359Z,8.13
2023-05-10T05:21:56.207Z,7.70
2023-05-10T05:24:24.123Z,5.97
2023-05-10T05:26:51.971Z,5.07
2023-05-10T05:29:19.896Z,6.65
2023-05-10T05:31:47.822Z,12.73
2023-05-10T05:34:15.684Z,5.05
2023-05-10T05:36:44.898Z,6.53
2023-05-10T05:39:12.754Z,8.15
2023-05-10T05:41:40.612Z,9.40
2023-05-10T05:44:08.549Z,3.70
2023-05-10T05:46:36.433Z,7.18
2023-05-10T05:49:04.402Z,6.88
2023-05-10T05:51:33.208Z,5.53
2023-05-10T05:54:02.691Z,4.32
2023-05-10T05:56:30.687Z,5.85
2023-05-10T05:58:58.516Z,10.15
2023-05-10T06:01:26.381Z,4.43
2023-05-10T06:03:54.299Z,5.40
2023-05-10T06:06:22.203Z,4.53
2023-05-10T06:08:50.054Z,4.88
2023-05-10T06:11:19.281Z,4.93
2023-05-10T06:13:47.163Z,5.50
2023-05-10T06:16:15.313Z,5.93
2023-05-10T06:18:43.182Z,6.95
2023-05-10T06:21:11.056Z,6.35
2023-05-10T06:23:38.918Z,5.80
2023-05-10T06:26:06.806Z,8.07
2023-05-10T06:28:36.092Z,6.22
2023-05-10T06:31:03.962Z,4.95
2023-05-10T06:33:32.112Z,5.40
2023-05-10T06:36:00.042Z,8.23
2023-05-10T06:38:28.282Z,8.73
2023-05-10T06:40:56.217Z,4.45
2023-05-10T06:43:24.363Z,4.18
2023-05-10T06:45:53.633Z,7.57
2023-05-10T06:48:21.524Z,4.38
2023-05-10T06:50:49.416Z,4.90
2023-05-10T06:53:17.299Z,5.15
2023-05-10T06:55:45.173Z,5.55
2023-05-10T06:58:13.544Z,7.55
2023-05-10T07:00:44.550Z,4.05
2023-05-10T07:03:13.894Z,4.50
2023-05-10T07:05:41.816Z,3.97
2023-05-10T07:08:10.037Z,8.57
2023-05-10T07:10:37.960Z,13.82
2023-05-10T07:13:05.908Z,6.53
2023-05-10T07:15:34.469Z,6.10
2023-05-10T07:18:02.395Z,3.85
2023-05-10T07:20:31.665Z,4.35
2023-05-10T07:22:59.472Z,4.20
2023-05-10T07:25:27.327Z,6.03
2023-05-10T07:27:55.222Z,8.95
2023-05-10T07:30:23.218Z,4.10
2023-05-10T07:32:51.178Z,6.50
2023-05-10T07:35:19.255Z,6.03
2023-05-10T07:37:48.521Z,4.57
2023-05-10T07:40:16.425Z,3.85
2023-05-10T07:42:44.290Z,4.28
2023-05-10T07:45:12.389Z,4.93
2023-05-10T07:47:40.293Z,6.03
2023-05-10T07:50:09.766Z,4.97
2023-05-10T07:52:37.616Z,8.48
2023-05-10T07:55:08.362Z,8.07
2023-05-10T07:57:36.440Z,6.50
2023-05-10T08:00:04.812Z,4.50
2023-05-10T08:02:41.267Z,4.30
2023-05-10T08:05:10.487Z,4.57
2023-05-10T08:07:38.476Z,4.60
2023-05-10T08:10:09.619Z,6.40
2023-05-10T08:12:37.585Z,3.95
2023-05-10T08:15:06.935Z,5.57
2023-05-10T08:17:35.028Z,4.10
2023-05-10T08:20:03.509Z,5.03
2023-05-10T08:22:31.713Z,4.10
2023-05-10T08:24:59.787Z,9.02
2023-05-10T08:27:29.253Z,7.03
2023-05-10T08:29:57.454Z,4.15
2023-05-10T08:32:25.658Z,2.03
2023-05-10T08:34:53.701Z,2.78
2023-05-10T08:37:21.725Z,3.72
2023-05-10T08:39:49.934Z,3.58
2023-05-10T08:42:23.091Z,4.57
2023-05-10T08:44:53.114Z,3.92
2023-05-10T08:47:21.916Z,5.63
2023-05-10T08:49:51.990Z,4.32
2023-05-10T08:52:20.804Z,3.35
2023-05-10T08:54:49.142Z,4.65
2023-05-10T08:57:17.065Z,6.13
2023-05-10T08:59:45.224Z,4.40
2023-05-10T09:02:18.575Z,6.72
2023-05-10T09:04:46.837Z,4.90
2023-05-10T09:07:15.105Z,3.83
2023-05-10T09:09:43.224Z,7.22
2023-05-10T09:12:12.619Z,5.35
2023-05-10T09:14:41.460Z,4.80
2023-05-10T09:17:09.674Z,3.28
2023-05-10T09:19:39.044Z,4.00
2023-05-10T09:22:06.937Z,4.55
2023-05-10T09:24:35.054Z,3.15
2023-05-10T09:27:03.833Z,6.90
2023-05-10T09:29:41.575Z,3.90
2023-05-10T09:32:09.534Z,5.60
2023-05-10T09:34:41.195Z,3.75
2023-05-10T09:37:09.293Z,3.50
2023-05-10T09:39:38.500Z,6.63
2023-05-10T09:42:08.540Z,3.95
2023-05-10T09:44:37.032Z,3.55
2023-05-10T09:47:05.543Z,6.03
2023-05-10T09:49:34.289Z,6.32
2023-05-10T09:52:04.898Z,6.85
2023-05-10T09:54:33.755Z,6.32
2023-05-10T09:57:01.948Z,4.63
2023-05-10T09:59:31.511Z,6.10
2023-05-10T10:02:01.623Z,4.55
2023-05-10T10:04:30.272Z,7.22
2023-05-10T10:07:03.741Z,4.53
2023-05-10T10:09:32.449Z,3.85
2023-05-10T10:12:01.676Z,3.95
2023-05-10T10:14:30.767Z,5.43
2023-05-10T10:19:30.261Z,5.05
2023-05-10T10:21:58.271Z,3.53
2023-05-10T10:24:27.643Z,6.35
2023-05-10T10:26:59.370Z,3.72
2023-05-10T10:29:35.888Z,8.48
2023-05-10T10:32:14.241Z,4.65
2023-05-10T10:34:42.670Z,5.47
2023-05-10T10:37:10.681Z,3.03
2023-05-10T10:39:40.320Z,3.67
2023-05-10T10:42:08.242Z,2.33
2023-05-10T10:44:40.333Z,7.15
2023-05-10T10:47:30.015Z,4.25
2023-05-10T10:50:09.019Z,4.32
2023-05-10T10:52:38.640Z,4.63
2023-05-10T10:55:10.288Z,7.07
2023-05-10T10:57:52.904Z,3.13
2023-05-10T11:00:26.301Z,7.53
2023-05-10T11:02:56.049Z,7.63
2023-05-10T11:05:38.973Z,6.32
2023-05-10T11:08:22.825Z,5.18
2023-05-10T11:11:08.895Z,6.45
2023-05-10T11:13:40.692Z,3.65
2023-05-10T11:16:19.668Z,5.50
2023-05-10T11:18:55.932Z,3.83
2023-05-10T11:21:24.258Z,5.55
2023-05-10T11:23:57.290Z,4.55
2023-05-10T11:26:27.558Z,6.25
2023-05-10T11:28:57.365Z,4.60
2023-05-10T11:31:27.605Z,6.15
2023-05-10T11:33:57.780Z,4.47
2023-05-10T11:36:28.240Z,5.18
2023-05-10T11:38:56.702Z,4.00
2023-05-10T11:41:27.058Z,3.60
2023-05-10T11:43:56.495Z,4.10
2023-05-10T11:46:25.706Z,4.68
2023-05-10T11:48:55.103Z,11.63
2023-05-10T11:51:23.846Z,5.25
2023-05-10T11:53:52.833Z,6.15
2023-05-10T11:56:21.747Z,4.90
2023-05-10T11:58:57.686Z,3.85
2023-05-10T12:01:26.859Z,4.20
2023-05-10T12:03:56.391Z,6.07
2023-05-10T12:06:24.817Z,4.32
2023-05-10T12:08:54.800Z,3.42
2023-05-10T12:11:28.162Z,3.53
2023-05-10T12:13:58.163Z,3.80
2023-05-10T12:16:27.569Z,4.40
2023-05-10T12:19:00.047Z,2.33
2023-05-10T12:21:31.404Z,3.50
2023-05-10T12:24:03.531Z,6.45
2023-05-10T12:26:31.640Z,5.45
2023-05-10T12:29:17.689Z,5.35
2023-05-10T12:31:53.801Z,5.47
2023-05-10T12:34:26.374Z,3.03
2023-05-10T12:36:55.474Z,3.47
2023-05-10T12:39:23.768Z,4.32
2023-05-10T12:41:52.391Z,5.43
2023-05-10T12:44:21.648Z,6.55
2023-05-10T12:46:49.811Z,4.72
2023-05-10T12:49:17.811Z,5.68
2023-05-10T12:51:45.754Z,4.03
2023-05-10T12:54:13.693Z,3.03
2023-05-10T12:56:41.848Z,7.30
2023-05-10T12:59:09.760Z,4.85
2023-05-10T13:01:39.344Z,3.65
2023-05-10T13:04:07.444Z,3.05
2023-05-10T13:06:36.034Z,4.38
2023-05-10T13:09:04.489Z,3.08
2023-05-10T13:11:32.457Z,5.20
2023-05-10T13:14:01.246Z,3.10
2023-05-10T13:16:29.172Z,5.60
2023-05-10T13:18:59.513Z,4.13
2023-05-10T13:21:27.644Z,4.38
2023-05-10T13:23:55.679Z,2.63
2023-05-10T13:26:23.596Z,7.07
2023-05-10T13:28:52.789Z,8.00
2023-05-10T13:31:21.700Z,4.97
2023-05-10T13:33:49.621Z,6.32
2023-05-10T13:36:19.263Z,5.45
2023-05-10T13:38:49.957Z,14.35
2023-05-10T13:41:18.652Z,7.25
2023-05-10T13:43:46.688Z,3.15
2023-05-10T13:46:14.611Z,5.28
2023-05-10T13:48:42.463Z,3.97
2023-05-10T13:51:10.481Z,3.05
2023-05-10T13:53:39.769Z,6.40
2023-05-10T13:56:08.168Z,4.93
2023-05-10T13:58:36.766Z,3.42
2023-05-10T14:01:05.839Z,4.47
2023-05-10T14:03:34.100Z,2.75
2023-05-10T14:06:02.331Z,6.32
2023-05-10T14:08:30.245Z,6.60
2023-05-10T14:10:59.505Z,4.63
2023-05-10T14:13:27.359Z,5.68
2023-05-10T14:15:56.232Z,2.95
2023-05-10T14:18:24.332Z,5.50
2023-05-10T14:20:52.273Z,5.05
2023-05-10T14:23:20.871Z,5.15
2023-05-10T14:25:48.732Z,2.67
2023-05-10T14:28:18.263Z,2.55
2023-05-10T14:30:46.295Z,9.40
2023-05-10T14:33:14.312Z,4.00
2023-05-10T14:35:42.433Z,4.80
2023-05-10T14:38:11.711Z,3.50
2023-05-10T14:40:39.538Z,4.20
2023-05-10T14:43:07.568Z,4.60
2023-05-10T14:45:37.019Z,5.05
2023-05-10T14:48:05.634Z,8.85
2023-05-10T14:50:36.980Z,3.50
2023-05-10T14:53:05.339Z,3.92
2023-05-10T14:55:33.690Z,5.93
2023-05-10T14:58:01.615Z,3.05
2023-05-10T15:00:31.341Z,3.88
2023-05-10T15:03:01.181Z,5.38
2023-05-10T15:05:29.557Z,10.77
2023-05-10T15:07:57.849Z,5.28
2023-05-10T15:10:26.265Z,4.68
2023-05-10T15:12:54.166Z,3.88
2023-05-10T15:15:22.137Z,2.65
2023-05-10T15:17:50.150Z,4.22
2023-05-10T15:20:19.594Z,3.25
2023-05-10T15:22:47.477Z,7.72
2023-05-10T15:25:16.984Z,10.60
2023-05-10T15:27:45.596Z,5.20
2023-05-10T15:30:14.257Z,4.40
2023-05-10T15:32:42.203Z,4.15
2023-05-10T15:35:11.141Z,4.32
2023-05-10T15:37:40.570Z,4.68
2023-05-10T15:40:09.199Z,4.10
2023-05-10T15:42:37.100Z,3.70
2023-05-10T15:45:05.947Z,7.05
2023-05-10T15:47:34.179Z,6.03
2023-05-10T15:50:02.168Z,3.33
2023-05-10T15:52:30.064Z,4.07
2023-05-10T15:54:59.292Z,3.47
2023-05-10T15:57:27.233Z,6.28
2023-05-10T15:59:56.292Z,6.28
2023-05-10T16:02:24.470Z,5.53
2023-05-10T16:04:52.709Z,5.25
2023-05-10T16:07:20.661Z,3.78
2023-05-10T16:09:49.443Z,4.70
2023-05-10T16:12:18.872Z,6.13
2023-05-10T16:14:47.799Z,3.88
2023-05-10T16:17:16.346Z,3.20
2023-05-10T16:19:44.260Z,4.20
2023-05-10T16:22:12.208Z,6.53
2023-05-10T16:24:40.083Z,5.07
2023-05-10T16:27:08.043Z,6.70
2023-05-10T16:29:37.295Z,6.20
2023-05-10T16:32:05.224Z,3.53
2023-05-10T16:34:33.067Z,5.03
2023-05-10T16:37:01.061Z,4.72
2023-05-10T16:39:29.230Z,6.18
2023-05-10T16:41:57.106Z,9.60
2023-05-10T16:44:25.924Z,6.47
2023-05-10T16:46:56.021Z,11.70
2023-05-10T16:49:26.099Z,5.40
2023-05-10T16:51:54.259Z,9.45
2023-05-10T16:54:22.798Z,4.80
2023-05-10T16:56:50.798Z,6.50
2023-05-10T16:59:18.711Z,12.70
2023-05-10T17:01:47.109Z,7.35
2023-05-10T17:04:17.790Z,7.10
2023-05-10T17:06:45.715Z,7.00
2023-05-10T17:09:13.921Z,4.38
2023-05-10T17:11:41.988Z,7.10
2023-05-10T17:14:10.136Z,8.05
2023-05-10T17:16:38.109Z,5.20
2023-05-10T17:19:06.079Z,7.63
2023-05-10T17:21:35.394Z,16.13
2023-05-10T17:24:03.274Z,6.50
2023-05-10T17:26:31.189Z,6.03
2023-05-10T17:28:59.376Z,8.27
2023-05-10T17:31:27.704Z,6.65
2023-05-10T17:33:55.616Z,6.80
2023-05-10T17:36:23.487Z,9.90
2023-05-10T17:38:52.814Z,7.28
2023-05-10T17:41:21.765Z,6.68
2023-05-10T17:43:49.615Z,6.78
2023-05-10T17:46:17.975Z,6.65
2023-05-10T17:48:45.985Z,8.43
2023-05-10T17:51:13.895Z,9.18
2023-05-10T17:53:42.370Z,7.00
2023-05-10T17:56:11.552Z,8.13
2023-05-10T17:58:39.453Z,14.00
2023-05-10T18:01:07.443Z,11.20
2023-05-10T18:03:35.988Z,6.03
2023-05-10T18:06:05.169Z,7.63
2023-05-10T18:08:33.800Z,8.90
2023-05-10T18:11:01.687Z,13.07
2023-05-10T18:13:30.942Z,9.70
2023-05-10T18:15:59.393Z,7.30
2023-05-10T18:18:27.352Z,10.63
2023-05-10T18:20:57.645Z,10.85
2023-05-10T18:23:26.322Z,8.05
2023-05-10T18:25:54.380Z,8.68
2023-05-10T18:28:22.301Z,10.85
2023-05-10T18:30:52.197Z,10.70
2023-05-10T18:33:20.133Z,10.52
2023-05-10T18:35:48.022Z,7.07
2023-05-10T18:38:15.916Z,10.43
2023-05-10T18:40:44.044Z,9.32
2023-05-10T18:43:11.910Z,7.15
2023-05-10T18:45:40.044Z,5.82
2023-05-10T18:48:09.295Z,9.70
2023-05-10T18:50:37.191Z,8.73
2023-05-10T18:53:05.040Z,14.13
2023-05-10T18:55:32.933Z,6.38
2023-05-10T18:58:00.908Z,8.75
2023-05-10T19:00:28.783Z,13.65
2023-05-10T19:02:56.757Z,6.97
2023-05-10T19:05:29.945Z,9.23
2023-05-10T19:07:57.923Z,11.00
2023-05-10T19:10:25.819Z,9.98
2023-05-10T19:12:53.712Z,6.50
2023-05-10T19:15:22.145Z,8.60
2023-05-10T19:17:51.617Z,9.93
2023-05-10T19:20:19.780Z,8.88
2023-05-10T19:25:24.169Z,12.50
2023-05-10T19:27:52.656Z,7.80
2023-05-10T19:30:20.582Z,7.53
2023-05-10T19:32:48.497Z,15.57
2023-05-10T19:35:16.827Z,6.53
2023-05-10T19:37:46.050Z,8.63
2023-05-10T19:40:17.489Z,10.25
2023-05-10T19:42:45.513Z,8.10
2023-05-10T19:45:15.465Z,6.28
2023-05-10T19:47:43.770Z,7.65
2023-05-10T19:50:12.915Z,13.45
2023-05-10T19:52:41.252Z,8.60
2023-05-10T19:55:09.807Z,10.32
2023-05-10T19:57:39.215Z,8.70
2023-05-10T20:00:08.342Z,8.18
2023-05-10T20:02:39.143Z,10.05
2023-05-10T20:05:07.852Z,10.00
2023-05-10T20:07:37.964Z,11.38
2023-05-10T20:10:06.498Z,7.32
2023-05-10T20:12:35.433Z,7.75
2023-05-10T20:15:05.305Z,9.35
2023-05-10T20:17:33.442Z,11.38
2023-05-10T20:20:01.366Z,12.88
2023-05-10T20:22:29.229Z,11.32
2023-05-10T20:24:58.476Z,9.60
2023-05-10T20:27:26.326Z,15.02
2023-05-10T20:29:54.216Z,12.25
2023-05-10T20:32:23.520Z,9.05
2023-05-10T20:34:51.405Z,10.02
2023-05-10T20:37:19.345Z,12.10
2023-05-10T20:39:49.812Z,8.68
2023-05-10T20:42:18.270Z,10.93
2023-05-10T20:44:46.093Z,10.18
2023-05-10T20:47:15.464Z,11.93
2023-05-10T20:49:45.011Z,9.52
2023-05-10T20:52:12.902Z,11.07
2023-05-10T20:54:40.910Z,12.43
2023-05-10T20:57:08.770Z,10.25
2023-05-10T20:59:36.753Z,10.00
2023-05-10T21:02:04.635Z,11.93
2023-05-10T21:04:32.578Z,13.05
2023-05-10T21:07:02.060Z,11.48
2023-05-10T21:09:30.117Z,12.70
2023-05-10T21:11:59.029Z,10.85
2023-05-10T21:14:26.913Z,14.18
2023-05-10T21:16:54.827Z,9.93
2023-05-10T21:19:22.725Z,13.88
2023-05-10T21:21:50.730Z,10.90
2023-05-10T21:24:19.990Z,13.15
2023-05-10T21:26:47.810Z,13.10
2023-05-10T21:29:15.689Z,12.88
2023-05-10T21:31:43.663Z,12.45
2023-05-10T21:34:11.520Z,11.68
2023-05-10T21:36:39.397Z,13.20
2023-05-10T21:39:07.453Z,15.13
2023-05-10T21:41:37.159Z,9.90
2023-05-10T21:44:05.375Z,11.65
2023-05-10T21:46:33.192Z,11.65
2023-05-10T21:49:01.076Z,13.63
2023-05-10T21:51:30.054Z,11.13
2023-05-10T21:53:57.939Z,12.70
2023-05-10T21:56:25.909Z,10.60
2023-05-10T21:58:55.144Z,10.43
2023-05-10T22:01:23.074Z,9.68
2023-05-10T22:03:51.044Z,9.82
2023-05-10T22:06:18.938Z,11.85
2023-05-10T22:08:46.834Z,12.88
2023-05-10T22:11:14.752Z,11.27
2023-05-10T22:13:42.589Z,13.77
2023-05-10T22:16:11.896Z,10.20
2023-05-10T22:18:39.845Z,10.35
2023-05-10T22:21:09.919Z,11.63
2023-05-10T22:23:37.797Z,12.07
2023-05-10T22:26:05.959Z,14.23
2023-05-10T22:28:33.991Z,13.23
2023-05-10T22:31:01.869Z,12.25
2023-05-10T22:33:31.166Z,11.82
2023-05-10T22:35:59.066Z,11.73
2023-05-10T22:38:26.968Z,12.57
2023-05-10T22:40:54.836Z,13.68
2023-05-10T22:43:22.750Z,12.88
2023-05-10T22:45:50.621Z,11.45
2023-05-10T22:48:18.594Z,13.63
2023-05-10T22:50:47.823Z,10.95
2023-05-10T22:53:15.706Z,14.55
2023-05-10T22:55:43.607Z,13.98
2023-05-10T22:58:11.682Z,10.13
2023-05-10T23:00:40.826Z,12.07
2023-05-10T23:03:08.765Z,19.08
2023-05-10T23:05:36.630Z,12.40
2023-05-10T23:08:05.961Z,14.15
2023-05-10T23:10:33.829Z,12.55
2023-05-10T23:13:01.692Z,14.57
2023-05-10T23:15:29.703Z,14.25
2023-05-10T23:18:00.918Z,14.30
2023-05-10T23:20:28.917Z,14.52
2023-05-10T23:22:56.808Z,14.70
2023-05-10T23:25:26.066Z,13.15
2023-05-10T23:27:53.977Z,15.07
2023-05-10T23:30:21.933Z,12.32
2023-05-10T23:32:49.914Z,13.07
2023-05-10T23:35:18.015Z,13.65
2023-05-10T23:37:45.889Z,12.63
2023-05-10T23:40:14.380Z,11.32
2023-05-10T23:42:43.619Z,11.20
2023-05-10T23:45:12.312Z,13.35
2023-05-10T23:47:40.288Z,11.75
2023-05-10T23:50:09.287Z,11.90
2023-05-10T23:52:37.213Z,14.60
2023-05-10T23:55:05.270Z,12.52
2023-05-10T23:57:33.123Z,14.57
